sensor_id;sensor_type;location;lat;lon;timestamp;P1;durP1;ratioP1;P2;durP2;ratioP2
34567;SDS011;20806;50.746;7.116;2022-11-21T00:02:24;3.00;;;1.02;;
34567;SDS011;20806;50.746;7.116;2022-11-21T00:04:50;2.83;;;1.10;;
34567;SDS011;20806;50.746;7.116;2022-11-21T00:07:16;2.17;;;1.00;;
34567;SDS011;20806;50.746;7.116;2022-11-21T00:09:42;2.30;;;0.98;;
34567;SDS011;20806;50.746;7.116;2022-11-21T00:12:08;3.03;;;1.10;;
34567;SDS011;20806;50.746;7.116;2022-11-21T00:14:34;3.97;;;1.13;;
34567;SDS011;20806;50.746;7.116;2022-11-21T00:17:00;4.27;;;1.20;;
34567;SDS011;20806;50.746;7.116;2022-11-21T00:19:26;4.70;;;1.40;;
34567;SDS011;20806;50.746;7.116;2022-11-21T00:21:52;3.55;;;1.02;;
34567;SDS011;20806;50.746;7.116;2022-11-21T00:24:18;3.55;;;1.40;;
34567;SDS011;20806;50.746;7.116;2022-11-21T00:26:44;2.55;;;0.88;;
34567;SDS011;20806;50.746;7.116;2022-11-21T00:29:10;3.47;;;1.20;;
34567;SDS011;20806;50.746;7.116;2022-11-21T00:31:36;2.65;;;1.20;;
34567;SDS011;20806;50.746;7.116;2022-11-21T00:34:02;5.15;;;1.50;;
34567;SDS011;20806;50.746;7.116;2022-11-21T00:36:28;2.30;;;1.00;;
34567;SDS011;20806;50.746;7.116;2022-11-21T00:38:54;3.20;;;1.10;;
34567;SDS011;20806;50.746;7.116;2022-11-21T00:41:19;2.55;;;1.10;;
34567;SDS011;20806;50.746;7.116;2022-11-21T00:43:45;2.83;;;1.10;;
34567;SDS011;20806;50.746;7.116;2022-11-21T00:46:11;4.15;;;1.00;;
34567;SDS011;20806;50.746;7.116;2022-11-21T00:48:37;2.40;;;1.00;;
34567;SDS011;20806;50.746;7.116;2022-11-21T00:51:03;2.83;;;1.02;;
34567;SDS011;20806;50.746;7.116;2022-11-21T00:53:29;2.78;;;1.10;;
34567;SDS011;20806;50.746;7.116;2022-11-21T00:55:56;3.63;;;1.20;;
34567;SDS011;20806;50.746;7.116;2022-11-21T00:58:22;3.85;;;0.95;;
34567;SDS011;20806;50.746;7.116;2022-11-21T01:00:48;3.33;;;1.10;;
34567;SDS011;20806;50.746;7.116;2022-11-21T01:03:14;3.20;;;1.10;;
34567;SDS011;20806;50.746;7.116;2022-11-21T01:05:40;2.53;;;1.13;;
34567;SDS011;20806;50.746;7.116;2022-11-21T01:08:06;2.25;;;1.10;;
34567;SDS011;20806;50.746;7.116;2022-11-21T01:10:33;1.92;;;0.80;;
34567;SDS011;20806;50.746;7.116;2022-11-21T01:12:59;2.78;;;0.90;;
34567;SDS011;20806;50.746;7.116;2022-11-21T01:15:25;2.13;;;0.97;;
34567;SDS011;20806;50.746;7.116;2022-11-21T01:17:51;4.15;;;1.10;;
34567;SDS011;20806;50.746;7.116;2022-11-21T01:20:17;3.72;;;1.10;;
34567;SDS011;20806;50.746;7.116;2022-11-21T01:22:43;3.22;;;1.20;;
34567;SDS011;20806;50.746;7.116;2022-11-21T01:25:09;2.15;;;0.82;;
34567;SDS011;20806;50.746;7.116;2022-11-21T01:27:35;3.45;;;1.00;;
34567;SDS011;20806;50.746;7.116;2022-11-21T01:30:01;2.58;;;0.90;;
34567;SDS011;20806;50.746;7.116;2022-11-21T01:32:27;2.33;;;0.95;;
34567;SDS011;20806;50.746;7.116;2022-11-21T01:34:53;2.50;;;0.90;;
34567;SDS011;20806;50.746;7.116;2022-11-21T01:37:19;2.78;;;1.15;;
34567;SDS011;20806;50.746;7.116;2022-11-21T01:39:45;3.55;;;1.08;;
34567;SDS011;20806;50.746;7.116;2022-11-21T01:42:11;3.30;;;1.10;;
34567;SDS011;20806;50.746;7.116;2022-11-21T01:44:47;2.00;;;1.00;;
34567;SDS011;20806;50.746;7.116;2022-11-21T01:47:13;3.00;;;1.10;;
34567;SDS011;20806;50.746;7.116;2022-11-21T01:49:39;3.10;;;0.98;;
34567;SDS011;20806;50.746;7.116;2022-11-21T01:52:08;3.60;;;1.23;;
34567;SDS011;20806;50.746;7.116;2022-11-21T01:57:21;2.20;;;0.80;;
34567;SDS011;20806;50.746;7.116;2022-11-21T02:02:14;2.03;;;0.90;;
34567;SDS011;20806;50.746;7.116;2022-11-21T02:04:42;1.73;;;0.75;;
34567;SDS011;20806;50.746;7.116;2022-11-21T02:07:09;4.05;;;1.20;;
34567;SDS011;20806;50.746;7.116;2022-11-21T02:09:36;4.55;;;1.00;;
34567;SDS011;20806;50.746;7.116;2022-11-21T02:12:07;2.38;;;0.90;;
34567;SDS011;20806;50.746;7.116;2022-11-21T02:14:34;1.88;;;0.80;;
34567;SDS011;20806;50.746;7.116;2022-11-21T02:17:01;2.15;;;0.85;;
34567;SDS011;20806;50.746;7.116;2022-11-21T02:19:37;2.50;;;0.90;;
34567;SDS011;20806;50.746;7.116;2022-11-21T02:22:12;1.33;;;0.68;;
34567;SDS011;20806;50.746;7.116;2022-11-21T02:27:06;2.28;;;0.80;;
34567;SDS011;20806;50.746;7.116;2022-11-21T02:29:32;1.92;;;0.90;;
34567;SDS011;20806;50.746;7.116;2022-11-21T02:31:59;2.28;;;0.70;;
34567;SDS011;20806;50.746;7.116;2022-11-21T02:34:27;2.38;;;0.70;;
34567;SDS011;20806;50.746;7.116;2022-11-21T02:36:53;1.67;;;0.70;;
34567;SDS011;20806;50.746;7.116;2022-11-21T02:39:26;1.92;;;0.70;;
34567;SDS011;20806;50.746;7.116;2022-11-21T02:42:02;1.85;;;0.70;;
34567;SDS011;20806;50.746;7.116;2022-11-21T02:44:37;1.60;;;0.60;;
34567;SDS011;20806;50.746;7.116;2022-11-21T02:47:05;1.42;;;0.52;;
34567;SDS011;20806;50.746;7.116;2022-11-21T02:52:17;1.00;;;0.60;;
34567;SDS011;20806;50.746;7.116;2022-11-21T02:54:43;1.80;;;0.75;;
34567;SDS011;20806;50.746;7.116;2022-11-21T02:57:09;2.15;;;0.60;;
34567;SDS011;20806;50.746;7.116;2022-11-21T02:59:35;1.20;;;0.50;;
34567;SDS011;20806;50.746;7.116;2022-11-21T03:02:01;1.05;;;0.40;;
34567;SDS011;20806;50.746;7.116;2022-11-21T03:04:27;1.13;;;0.50;;
34567;SDS011;20806;50.746;7.116;2022-11-21T03:06:53;2.05;;;0.70;;
34567;SDS011;20806;50.746;7.116;2022-11-21T03:09:19;0.95;;;0.57;;
34567;SDS011;20806;50.746;7.116;2022-11-21T03:11:45;1.60;;;0.70;;
34567;SDS011;20806;50.746;7.116;2022-11-21T03:14:11;1.07;;;0.60;;
34567;SDS011;20806;50.746;7.116;2022-11-21T03:16:37;0.88;;;0.60;;
34567;SDS011;20806;50.746;7.116;2022-11-21T03:19:03;1.00;;;0.40;;
34567;SDS011;20806;50.746;7.116;2022-11-21T03:21:29;1.50;;;0.70;;
34567;SDS011;20806;50.746;7.116;2022-11-21T03:23:55;1.23;;;0.68;;
34567;SDS011;20806;50.746;7.116;2022-11-21T03:26:21;1.30;;;0.60;;
34567;SDS011;20806;50.746;7.116;2022-11-21T03:28:47;0.88;;;0.50;;
34567;SDS011;20806;50.746;7.116;2022-11-21T03:31:13;1.48;;;0.68;;
34567;SDS011;20806;50.746;7.116;2022-11-21T03:33:39;0.90;;;0.50;;
34567;SDS011;20806;50.746;7.116;2022-11-21T03:36:05;0.98;;;0.63;;
34567;SDS011;20806;50.746;7.116;2022-11-21T03:38:31;1.13;;;0.60;;
34567;SDS011;20806;50.746;7.116;2022-11-21T03:40:57;1.30;;;0.50;;
34567;SDS011;20806;50.746;7.116;2022-11-21T03:43:27;2.57;;;0.80;;
34567;SDS011;20806;50.746;7.116;2022-11-21T03:45:53;0.80;;;0.40;;
34567;SDS011;20806;50.746;7.116;2022-11-21T03:48:19;1.00;;;0.57;;
34567;SDS011;20806;50.746;7.116;2022-11-21T03:50:45;1.83;;;0.70;;
34567;SDS011;20806;50.746;7.116;2022-11-21T03:53:11;0.95;;;0.60;;
34567;SDS011;20806;50.746;7.116;2022-11-21T03:55:37;1.60;;;0.60;;
34567;SDS011;20806;50.746;7.116;2022-11-21T03:58:03;2.95;;;0.77;;
34567;SDS011;20806;50.746;7.116;2022-11-21T04:00:29;1.00;;;0.60;;
34567;SDS011;20806;50.746;7.116;2022-11-21T04:02:55;1.67;;;0.60;;
34567;SDS011;20806;50.746;7.116;2022-11-21T04:05:21;0.98;;;0.60;;
34567;SDS011;20806;50.746;7.116;2022-11-21T04:07:46;1.60;;;0.60;;
34567;SDS011;20806;50.746;7.116;2022-11-21T04:10:12;0.80;;;0.50;;
34567;SDS011;20806;50.746;7.116;2022-11-21T04:12:38;1.55;;;0.60;;
34567;SDS011;20806;50.746;7.116;2022-11-21T04:15:04;1.67;;;0.50;;
34567;SDS011;20806;50.746;7.116;2022-11-21T04:17:31;1.93;;;0.60;;
34567;SDS011;20806;50.746;7.116;2022-11-21T04:19:57;0.80;;;0.50;;
34567;SDS011;20806;50.746;7.116;2022-11-21T04:22:23;1.42;;;0.68;;
34567;SDS011;20806;50.746;7.116;2022-11-21T04:24:49;0.95;;;0.40;;
34567;SDS011;20806;50.746;7.116;2022-11-21T04:27:15;1.20;;;0.50;;
34567;SDS011;20806;50.746;7.116;2022-11-21T04:29:41;1.10;;;0.60;;
34567;SDS011;20806;50.746;7.116;2022-11-21T04:32:07;0.77;;;0.50;;
34567;SDS011;20806;50.746;7.116;2022-11-21T04:34:32;1.83;;;0.50;;
34567;SDS011;20806;50.746;7.116;2022-11-21T04:36:58;0.70;;;0.40;;
34567;SDS011;20806;50.746;7.116;2022-11-21T04:39:24;0.93;;;0.57;;
34567;SDS011;20806;50.746;7.116;2022-11-21T04:41:50;0.60;;;0.40;;
34567;SDS011;20806;50.746;7.116;2022-11-21T04:44:16;0.75;;;0.40;;
34567;SDS011;20806;50.746;7.116;2022-11-21T04:46:42;0.60;;;0.40;;
34567;SDS011;20806;50.746;7.116;2022-11-21T04:49:08;0.98;;;0.50;;
34567;SDS011;20806;50.746;7.116;2022-11-21T04:51:34;1.00;;;0.60;;
34567;SDS011;20806;50.746;7.116;2022-11-21T04:54:00;1.13;;;0.55;;
34567;SDS011;20806;50.746;7.116;2022-11-21T04:56:26;1.10;;;0.50;;
34567;SDS011;20806;50.746;7.116;2022-11-21T04:58:52;1.10;;;0.50;;
34567;SDS011;20806;50.746;7.116;2022-11-21T05:01:18;0.50;;;0.40;;
34567;SDS011;20806;50.746;7.116;2022-11-21T05:03:44;0.50;;;0.40;;
34567;SDS011;20806;50.746;7.116;2022-11-21T05:06:10;1.10;;;0.50;;
34567;SDS011;20806;50.746;7.116;2022-11-21T05:08:36;0.98;;;0.50;;
34567;SDS011;20806;50.746;7.116;2022-11-21T05:11:02;1.25;;;0.57;;
34567;SDS011;20806;50.746;7.116;2022-11-21T05:13:46;1.05;;;0.30;;
34567;SDS011;20806;50.746;7.116;2022-11-21T05:16:12;0.47;;;0.30;;
34567;SDS011;20806;50.746;7.116;2022-11-21T05:18:38;0.90;;;0.40;;
34567;SDS011;20806;50.746;7.116;2022-11-21T05:21:04;0.93;;;0.50;;
34567;SDS011;20806;50.746;7.116;2022-11-21T05:23:30;0.40;;;0.40;;
34567;SDS011;20806;50.746;7.116;2022-11-21T05:25:56;0.70;;;0.50;;
34567;SDS011;20806;50.746;7.116;2022-11-21T05:28:22;0.70;;;0.50;;
34567;SDS011;20806;50.746;7.116;2022-11-21T05:30:48;0.65;;;0.40;;
34567;SDS011;20806;50.746;7.116;2022-11-21T05:33:14;0.45;;;0.40;;
34567;SDS011;20806;50.746;7.116;2022-11-21T05:35:40;0.40;;;0.40;;
34567;SDS011;20806;50.746;7.116;2022-11-21T05:38:06;0.40;;;0.40;;
34567;SDS011;20806;50.746;7.116;2022-11-21T05:40:32;0.43;;;0.43;;
34567;SDS011;20806;50.746;7.116;2022-11-21T05:42:58;1.07;;;0.40;;
34567;SDS011;20806;50.746;7.116;2022-11-21T05:45:42;0.55;;;0.30;;
34567;SDS011;20806;50.746;7.116;2022-11-21T05:48:08;0.65;;;0.40;;
34567;SDS011;20806;50.746;7.116;2022-11-21T05:50:34;0.50;;;0.40;;
34567;SDS011;20806;50.746;7.116;2022-11-21T05:53:03;0.70;;;0.50;;
34567;SDS011;20806;50.746;7.116;2022-11-21T05:55:30;0.50;;;0.40;;
34567;SDS011;20806;50.746;7.116;2022-11-21T05:57:57;1.50;;;0.50;;
34567;SDS011;20806;50.746;7.116;2022-11-21T06:00:23;0.88;;;0.50;;
34567;SDS011;20806;50.746;7.116;2022-11-21T06:02:49;0.73;;;0.50;;
34567;SDS011;20806;50.746;7.116;2022-11-21T06:05:34;1.77;;;0.60;;
34567;SDS011;20806;50.746;7.116;2022-11-21T06:08:00;0.70;;;0.52;;
34567;SDS011;20806;50.746;7.116;2022-11-21T06:10:26;0.57;;;0.50;;
34567;SDS011;20806;50.746;7.116;2022-11-21T06:12:52;0.63;;;0.50;;
34567;SDS011;20806;50.746;7.116;2022-11-21T06:15:18;0.70;;;0.60;;
34567;SDS011;20806;50.746;7.116;2022-11-21T06:17:44;1.08;;;0.60;;
34567;SDS011;20806;50.746;7.116;2022-11-21T06:20:10;0.90;;;0.50;;
34567;SDS011;20806;50.746;7.116;2022-11-21T06:22:36;0.40;;;0.40;;
34567;SDS011;20806;50.746;7.116;2022-11-21T06:25:02;0.90;;;0.60;;
34567;SDS011;20806;50.746;7.116;2022-11-21T06:27:28;0.40;;;0.40;;
34567;SDS011;20806;50.746;7.116;2022-11-21T06:29:54;1.00;;;0.50;;
34567;SDS011;20806;50.746;7.116;2022-11-21T06:32:20;0.88;;;0.40;;
34567;SDS011;20806;50.746;7.116;2022-11-21T06:34:46;0.32;;;0.32;;
34567;SDS011;20806;50.746;7.116;2022-11-21T06:37:12;0.95;;;0.50;;
34567;SDS011;20806;50.746;7.116;2022-11-21T06:39:38;0.80;;;0.55;;
34567;SDS011;20806;50.746;7.116;2022-11-21T06:42:04;0.40;;;0.40;;
34567;SDS011;20806;50.746;7.116;2022-11-21T06:44:30;0.60;;;0.43;;
34567;SDS011;20806;50.746;7.116;2022-11-21T06:46:56;0.85;;;0.50;;
34567;SDS011;20806;50.746;7.116;2022-11-21T06:49:21;0.70;;;0.50;;
34567;SDS011;20806;50.746;7.116;2022-11-21T06:51:47;0.60;;;0.50;;
34567;SDS011;20806;50.746;7.116;2022-11-21T06:54:13;0.73;;;0.50;;
34567;SDS011;20806;50.746;7.116;2022-11-21T06:56:39;0.50;;;0.50;;
34567;SDS011;20806;50.746;7.116;2022-11-21T06:59:05;0.93;;;0.60;;
34567;SDS011;20806;50.746;7.116;2022-11-21T07:01:31;1.10;;;0.50;;
34567;SDS011;20806;50.746;7.116;2022-11-21T07:03:57;0.65;;;0.50;;
34567;SDS011;20806;50.746;7.116;2022-11-21T07:06:23;0.80;;;0.40;;
34567;SDS011;20806;50.746;7.116;2022-11-21T07:08:52;0.70;;;0.47;;
34567;SDS011;20806;50.746;7.116;2022-11-21T07:11:19;0.90;;;0.50;;
34567;SDS011;20806;50.746;7.116;2022-11-21T07:13:45;0.50;;;0.50;;
34567;SDS011;20806;50.746;7.116;2022-11-21T07:16:11;0.77;;;0.60;;
34567;SDS011;20806;50.746;7.116;2022-11-21T07:18:40;0.70;;;0.50;;
34567;SDS011;20806;50.746;7.116;2022-11-21T07:21:06;0.60;;;0.50;;
34567;SDS011;20806;50.746;7.116;2022-11-21T07:23:33;0.50;;;0.50;;
34567;SDS011;20806;50.746;7.116;2022-11-21T07:26:00;0.50;;;0.40;;
34567;SDS011;20806;50.746;7.116;2022-11-21T07:28:27;0.57;;;0.57;;
34567;SDS011;20806;50.746;7.116;2022-11-21T07:30:57;0.88;;;0.50;;
34567;SDS011;20806;50.746;7.116;2022-11-21T07:33:24;0.67;;;0.50;;
34567;SDS011;20806;50.746;7.116;2022-11-21T07:35:50;0.85;;;0.60;;
34567;SDS011;20806;50.746;7.116;2022-11-21T07:38:16;0.60;;;0.50;;
34567;SDS011;20806;50.746;7.116;2022-11-21T07:40:42;0.50;;;0.50;;
34567;SDS011;20806;50.746;7.116;2022-11-21T07:43:08;0.50;;;0.50;;
34567;SDS011;20806;50.746;7.116;2022-11-21T07:45:35;0.60;;;0.60;;
34567;SDS011;20806;50.746;7.116;2022-11-21T07:48:02;0.60;;;0.60;;
34567;SDS011;20806;50.746;7.116;2022-11-21T07:50:29;0.60;;;0.60;;
34567;SDS011;20806;50.746;7.116;2022-11-21T07:52:55;0.70;;;0.70;;
34567;SDS011;20806;50.746;7.116;2022-11-21T07:55:21;0.43;;;0.43;;
34567;SDS011;20806;50.746;7.116;2022-11-21T07:57:47;0.93;;;0.52;;
34567;SDS011;20806;50.746;7.116;2022-11-21T08:00:21;0.45;;;0.40;;
34567;SDS011;20806;50.746;7.116;2022-11-21T08:02:47;0.45;;;0.40;;
34567;SDS011;20806;50.746;7.116;2022-11-21T08:05:13;0.50;;;0.43;;
34567;SDS011;20806;50.746;7.116;2022-11-21T08:07:39;0.80;;;0.60;;
34567;SDS011;20806;50.746;7.116;2022-11-21T08:10:05;0.60;;;0.60;;
34567;SDS011;20806;50.746;7.116;2022-11-21T08:12:31;0.85;;;0.60;;
34567;SDS011;20806;50.746;7.116;2022-11-21T08:14:57;1.02;;;0.75;;
34567;SDS011;20806;50.746;7.116;2022-11-21T08:17:26;0.65;;;0.65;;
34567;SDS011;20806;50.746;7.116;2022-11-21T08:19:52;0.70;;;0.67;;
34567;SDS011;20806;50.746;7.116;2022-11-21T08:22:18;0.75;;;0.70;;
34567;SDS011;20806;50.746;7.116;2022-11-21T08:24:44;1.42;;;0.80;;
34567;SDS011;20806;50.746;7.116;2022-11-21T08:27:10;1.35;;;0.90;;
34567;SDS011;20806;50.746;7.116;2022-11-21T08:29:36;0.88;;;0.88;;
34567;SDS011;20806;50.746;7.116;2022-11-21T08:32:02;2.00;;;0.80;;
34567;SDS011;20806;50.746;7.116;2022-11-21T08:34:29;0.80;;;0.80;;
34567;SDS011;20806;50.746;7.116;2022-11-21T08:36:56;0.82;;;0.82;;
34567;SDS011;20806;50.746;7.116;2022-11-21T08:39:23;1.05;;;0.80;;
34567;SDS011;20806;50.746;7.116;2022-11-21T08:41:49;0.77;;;0.70;;
34567;SDS011;20806;50.746;7.116;2022-11-21T08:44:29;0.68;;;0.68;;
34567;SDS011;20806;50.746;7.116;2022-11-21T08:46:55;1.17;;;0.80;;
34567;SDS011;20806;50.746;7.116;2022-11-21T08:49:21;0.65;;;0.65;;
34567;SDS011;20806;50.746;7.116;2022-11-21T08:51:47;0.55;;;0.50;;
34567;SDS011;20806;50.746;7.116;2022-11-21T08:54:16;0.60;;;0.50;;
34567;SDS011;20806;50.746;7.116;2022-11-21T08:56:42;0.60;;;0.50;;
34567;SDS011;20806;50.746;7.116;2022-11-21T08:59:08;1.10;;;0.50;;
34567;SDS011;20806;50.746;7.116;2022-11-21T09:01:34;0.50;;;0.50;;
34567;SDS011;20806;50.746;7.116;2022-11-21T09:04:00;0.95;;;0.60;;
34567;SDS011;20806;50.746;7.116;2022-11-21T09:06:26;1.00;;;0.50;;
34567;SDS011;20806;50.746;7.116;2022-11-21T09:08:52;0.88;;;0.60;;
34567;SDS011;20806;50.746;7.116;2022-11-21T09:11:18;0.68;;;0.50;;
34567;SDS011;20806;50.746;7.116;2022-11-21T09:13:44;0.70;;;0.40;;
34567;SDS011;20806;50.746;7.116;2022-11-21T09:16:33;0.50;;;0.50;;
34567;SDS011;20806;50.746;7.116;2022-11-21T09:19:17;0.40;;;0.40;;
34567;SDS011;20806;50.746;7.116;2022-11-21T09:21:44;1.80;;;0.40;;
34567;SDS011;20806;50.746;7.116;2022-11-21T09:24:10;0.40;;;0.40;;
34567;SDS011;20806;50.746;7.116;2022-11-21T09:26:36;0.50;;;0.50;;
34567;SDS011;20806;50.746;7.116;2022-11-21T09:29:02;0.40;;;0.40;;
34567;SDS011;20806;50.746;7.116;2022-11-21T09:31:28;0.60;;;0.30;;
34567;SDS011;20806;50.746;7.116;2022-11-21T09:33:54;0.43;;;0.40;;
34567;SDS011;20806;50.746;7.116;2022-11-21T09:36:20;0.40;;;0.30;;
34567;SDS011;20806;50.746;7.116;2022-11-21T09:38:46;0.55;;;0.30;;
34567;SDS011;20806;50.746;7.116;2022-11-21T09:46:47;0.40;;;0.30;;
34567;SDS011;20806;50.746;7.116;2022-11-21T09:49:14;0.30;;;0.30;;
34567;SDS011;20806;50.746;7.116;2022-11-21T09:51:41;0.40;;;0.38;;
34567;SDS011;20806;50.746;7.116;2022-11-21T09:56:35;0.43;;;0.25;;
34567;SDS011;20806;50.746;7.116;2022-11-21T10:01:47;0.40;;;0.40;;
34567;SDS011;20806;50.746;7.116;2022-11-21T10:04:13;0.30;;;0.30;;
34567;SDS011;20806;50.746;7.116;2022-11-21T10:06:42;0.30;;;0.30;;
34567;SDS011;20806;50.746;7.116;2022-11-21T10:17:27;0.28;;;0.28;;
34567;SDS011;20806;50.746;7.116;2022-11-21T10:25:38;0.35;;;0.20;;
34567;SDS011;20806;50.746;7.116;2022-11-21T10:30:30;0.10;;;0.10;;
34567;SDS011;20806;50.746;7.116;2022-11-21T10:32:57;0.80;;;0.27;;
34567;SDS011;20806;50.746;7.116;2022-11-21T10:35:43;0.20;;;0.20;;
34567;SDS011;20806;50.746;7.116;2022-11-21T10:38:18;0.28;;;0.20;;
34567;SDS011;20806;50.746;7.116;2022-11-21T10:41:07;0.30;;;0.20;;
34567;SDS011;20806;50.746;7.116;2022-11-21T10:43:35;0.40;;;0.20;;
34567;SDS011;20806;50.746;7.116;2022-11-21T10:46:23;0.65;;;0.20;;
34567;SDS011;20806;50.746;7.116;2022-11-21T10:48:53;0.20;;;0.20;;
34567;SDS011;20806;50.746;7.116;2022-11-21T10:54:02;1.50;;;0.20;;
34567;SDS011;20806;50.746;7.116;2022-11-21T10:56:46;0.30;;;0.20;;
34567;SDS011;20806;50.746;7.116;2022-11-21T10:59:17;0.52;;;0.20;;
34567;SDS011;20806;50.746;7.116;2022-11-21T11:01:53;1.10;;;0.30;;
34567;SDS011;20806;50.746;7.116;2022-11-21T11:04:19;1.00;;;0.30;;
34567;SDS011;20806;50.746;7.116;2022-11-21T11:06:46;0.30;;;0.30;;
34567;SDS011;20806;50.746;7.116;2022-11-21T11:09:22;0.60;;;0.30;;
34567;SDS011;20806;50.746;7.116;2022-11-21T11:11:48;0.70;;;0.20;;
34567;SDS011;20806;50.746;7.116;2022-11-21T11:14:14;0.32;;;0.30;;
34567;SDS011;20806;50.746;7.116;2022-11-21T11:16:42;0.30;;;0.30;;
34567;SDS011;20806;50.746;7.116;2022-11-21T11:31:50;0.20;;;0.20;;
34567;SDS011;20806;50.746;7.116;2022-11-21T11:34:16;1.30;;;0.20;;
34567;SDS011;20806;50.746;7.116;2022-11-21T11:39:25;0.30;;;0.20;;
34567;SDS011;20806;50.746;7.116;2022-11-21T11:47:56;0.50;;;0.32;;
34567;SDS011;20806;50.746;7.116;2022-11-21T11:56:32;1.00;;;0.30;;
34567;SDS011;20806;50.746;7.116;2022-11-21T11:58:27;0.28;;;0.10;;
34567;SDS011;20806;50.746;7.116;2022-11-21T12:01:02;0.70;;;0.30;;
34567;SDS011;20806;50.746;7.116;2022-11-21T12:03:47;0.35;;;0.20;;
34567;SDS011;20806;50.746;7.116;2022-11-21T12:06:15;1.17;;;0.43;;
34567;SDS011;20806;50.746;7.116;2022-11-21T12:11:15;0.90;;;0.30;;
34567;SDS011;20806;50.746;7.116;2022-11-21T12:14:07;1.25;;;0.30;;
34567;SDS011;20806;50.746;7.116;2022-11-21T12:16:36;0.45;;;0.25;;
34567;SDS011;20806;50.746;7.116;2022-11-21T12:19:06;2.90;;;0.40;;
34567;SDS011;20806;50.746;7.116;2022-11-21T12:21:35;0.73;;;0.30;;
34567;SDS011;20806;50.746;7.116;2022-11-21T12:24:02;0.40;;;0.20;;
34567;SDS011;20806;50.746;7.116;2022-11-21T12:29:20;0.30;;;0.30;;
34567;SDS011;20806;50.746;7.116;2022-11-21T12:37:22;0.43;;;0.20;;
34567;SDS011;20806;50.746;7.116;2022-11-21T12:45:30;0.30;;;0.20;;
34567;SDS011;20806;50.746;7.116;2022-11-21T12:48:10;0.10;;;0.10;;
34567;SDS011;20806;50.746;7.116;2022-11-21T12:59:26;0.40;;;0.20;;
34567;SDS011;20806;50.746;7.116;2022-11-21T13:04:42;1.30;;;0.30;;
34567;SDS011;20806;50.746;7.116;2022-11-21T13:07:09;0.80;;;0.30;;
34567;SDS011;20806;50.746;7.116;2022-11-21T13:09:37;0.63;;;0.22;;
34567;SDS011;20806;50.746;7.116;2022-11-21T13:24:59;1.70;;;0.40;;
34567;SDS011;20806;50.746;7.116;2022-11-21T13:27:29;1.05;;;0.35;;
34567;SDS011;20806;50.746;7.116;2022-11-21T13:35:54;0.73;;;0.30;;
34567;SDS011;20806;50.746;7.116;2022-11-21T13:38:13;0.70;;;0.35;;
34567;SDS011;20806;50.746;7.116;2022-11-21T13:40:39;0.40;;;0.30;;
34567;SDS011;20806;50.746;7.116;2022-11-21T13:43:28;0.30;;;0.20;;
34567;SDS011;20806;50.746;7.116;2022-11-21T13:45:54;0.55;;;0.28;;
34567;SDS011;20806;50.746;7.116;2022-11-21T14:08:23;0.47;;;0.30;;
34567;SDS011;20806;50.746;7.116;2022-11-21T14:10:51;0.50;;;0.30;;
34567;SDS011;20806;50.746;7.116;2022-11-21T14:15:46;0.30;;;0.20;;
34567;SDS011;20806;50.746;7.116;2022-11-21T14:18:23;1.70;;;0.30;;
34567;SDS011;20806;50.746;7.116;2022-11-21T14:20:53;0.90;;;0.23;;
34567;SDS011;20806;50.746;7.116;2022-11-21T14:23:25;0.73;;;0.30;;
34567;SDS011;20806;50.746;7.116;2022-11-21T14:26:03;0.90;;;0.20;;
34567;SDS011;20806;50.746;7.116;2022-11-21T14:28:36;0.30;;;0.23;;
34567;SDS011;20806;50.746;7.116;2022-11-21T14:33:34;0.47;;;0.30;;
34567;SDS011;20806;50.746;7.116;2022-11-21T14:36:08;0.40;;;0.20;;
34567;SDS011;20806;50.746;7.116;2022-11-21T14:38:57;0.45;;;0.20;;
34567;SDS011;20806;50.746;7.116;2022-11-21T14:41:25;0.50;;;0.28;;
34567;SDS011;20806;50.746;7.116;2022-11-21T14:46:38;0.33;;;0.30;;
34567;SDS011;20806;50.746;7.116;2022-11-21T14:52:25;0.47;;;0.20;;
34567;SDS011;20806;50.746;7.116;2022-11-21T14:54:42;0.40;;;0.20;;
34567;SDS011;20806;50.746;7.116;2022-11-21T14:57:13;0.40;;;0.30;;
34567;SDS011;20806;50.746;7.116;2022-11-21T14:59:47;0.30;;;0.22;;
34567;SDS011;20806;50.746;7.116;2022-11-21T15:02:18;0.30;;;0.30;;
34567;SDS011;20806;50.746;7.116;2022-11-21T15:04:47;0.45;;;0.40;;
34567;SDS011;20806;50.746;7.116;2022-11-21T15:07:16;1.00;;;0.40;;
34567;SDS011;20806;50.746;7.116;2022-11-21T15:09:43;0.93;;;0.40;;
34567;SDS011;20806;50.746;7.116;2022-11-21T15:12:09;1.08;;;0.43;;
34567;SDS011;20806;50.746;7.116;2022-11-21T15:14:44;0.33;;;0.33;;
34567;SDS011;20806;50.746;7.116;2022-11-21T15:17:17;0.60;;;0.40;;
34567;SDS011;20806;50.746;7.116;2022-11-21T15:19:45;0.40;;;0.38;;
34567;SDS011;20806;50.746;7.116;2022-11-21T15:22:28;0.50;;;0.40;;
34567;SDS011;20806;50.746;7.116;2022-11-21T15:25:12;0.68;;;0.40;;
34567;SDS011;20806;50.746;7.116;2022-11-21T15:27:45;0.50;;;0.40;;
34567;SDS011;20806;50.746;7.116;2022-11-21T15:43:43;0.30;;;0.20;;
34567;SDS011;20806;50.746;7.116;2022-11-21T15:49:11;0.77;;;0.40;;
34567;SDS011;20806;50.746;7.116;2022-11-21T15:51:38;0.38;;;0.38;;
34567;SDS011;20806;50.746;7.116;2022-11-21T15:54:05;0.95;;;0.32;;
34567;SDS011;20806;50.746;7.116;2022-11-21T15:56:31;0.43;;;0.33;;
34567;SDS011;20806;50.746;7.116;2022-11-21T15:58:57;0.57;;;0.50;;
34567;SDS011;20806;50.746;7.116;2022-11-21T16:01:24;0.57;;;0.47;;
34567;SDS011;20806;50.746;7.116;2022-11-21T16:03:57;0.50;;;0.40;;
34567;SDS011;20806;50.746;7.116;2022-11-21T16:06:24;1.13;;;0.50;;
34567;SDS011;20806;50.746;7.116;2022-11-21T16:08:49;1.00;;;0.30;;
34567;SDS011;20806;50.746;7.116;2022-11-21T16:11:21;0.60;;;0.40;;
34567;SDS011;20806;50.746;7.116;2022-11-21T16:13:48;1.27;;;0.40;;
34567;SDS011;20806;50.746;7.116;2022-11-21T16:16:15;0.68;;;0.40;;
34567;SDS011;20806;50.746;7.116;2022-11-21T16:18:41;0.70;;;0.40;;
34567;SDS011;20806;50.746;7.116;2022-11-21T16:21:07;0.80;;;0.50;;
34567;SDS011;20806;50.746;7.116;2022-11-21T16:23:33;0.30;;;0.30;;
34567;SDS011;20806;50.746;7.116;2022-11-21T16:25:59;0.70;;;0.30;;
34567;SDS011;20806;50.746;7.116;2022-11-21T16:28:25;0.28;;;0.28;;
34567;SDS011;20806;50.746;7.116;2022-11-21T16:30:51;0.47;;;0.30;;
34567;SDS011;20806;50.746;7.116;2022-11-21T16:33:17;1.30;;;0.55;;
34567;SDS011;20806;50.746;7.116;2022-11-21T16:35:42;0.60;;;0.38;;
34567;SDS011;20806;50.746;7.116;2022-11-21T16:38:08;0.40;;;0.30;;
34567;SDS011;20806;50.746;7.116;2022-11-21T16:40:35;0.35;;;0.30;;
34567;SDS011;20806;50.746;7.116;2022-11-21T16:43:06;0.80;;;0.40;;
34567;SDS011;20806;50.746;7.116;2022-11-21T16:45:33;0.60;;;0.50;;
34567;SDS011;20806;50.746;7.116;2022-11-21T16:47:59;0.65;;;0.30;;
34567;SDS011;20806;50.746;7.116;2022-11-21T16:50:25;0.40;;;0.30;;
34567;SDS011;20806;50.746;7.116;2022-11-21T16:52:50;0.80;;;0.40;;
34567;SDS011;20806;50.746;7.116;2022-11-21T16:55:16;0.88;;;0.30;;
34567;SDS011;20806;50.746;7.116;2022-11-21T16:57:42;0.80;;;0.38;;
34567;SDS011;20806;50.746;7.116;2022-11-21T17:00:08;0.40;;;0.30;;
34567;SDS011;20806;50.746;7.116;2022-11-21T17:02:36;0.77;;;0.40;;
34567;SDS011;20806;50.746;7.116;2022-11-21T17:05:02;0.52;;;0.30;;
34567;SDS011;20806;50.746;7.116;2022-11-21T17:07:29;0.63;;;0.50;;
34567;SDS011;20806;50.746;7.116;2022-11-21T17:09:55;0.40;;;0.40;;
34567;SDS011;20806;50.746;7.116;2022-11-21T17:12:21;1.60;;;0.60;;
34567;SDS011;20806;50.746;7.116;2022-11-21T17:14:47;0.60;;;0.60;;
34567;SDS011;20806;50.746;7.116;2022-11-21T17:17:13;0.70;;;0.52;;
34567;SDS011;20806;50.746;7.116;2022-11-21T17:19:39;1.23;;;0.70;;
34567;SDS011;20806;50.746;7.116;2022-11-21T17:22:05;0.77;;;0.53;;
34567;SDS011;20806;50.746;7.116;2022-11-21T17:24:31;0.65;;;0.55;;
34567;SDS011;20806;50.746;7.116;2022-11-21T17:26:56;0.53;;;0.50;;
34567;SDS011;20806;50.746;7.116;2022-11-21T17:29:26;0.85;;;0.55;;
34567;SDS011;20806;50.746;7.116;2022-11-21T17:31:53;1.00;;;0.50;;
34567;SDS011;20806;50.746;7.116;2022-11-21T17:34:19;0.57;;;0.40;;